sensor_id;sensor_type;location;lat;lon;timestamp;temperature;humidity
79491;SHT31;68950;53.098;18.032;2023-04-24T00:01:01;19.58;54.10
79491;SHT31;68950;53.098;18.032;2023-04-24T00:03:28;19.57;54.10
79491;SHT31;68950;53.098;18.032;2023-04-24T00:05:55;19.57;54.11
79491;SHT31;68950;53.098;18.032;2023-04-24T00:08:22;19.58;54.10
79491;SHT31;68950;53.098;18.032;2023-04-24T00:10:50;19.57;54.10
79491;SHT31;68950;53.098;18.032;2023-04-24T00:13:18;19.57;54.12
79491;SHT31;68950;53.098;18.032;2023-04-24T00:15:45;19.57;54.11
79491;SHT31;68950;53.098;18.032;2023-04-24T00:18:11;19.57;54.12
79491;SHT31;68950;53.098;18.032;2023-04-24T00:20:38;19.56;54.12
79491;SHT31;68950;53.098;18.032;2023-04-24T00:23:05;19.57;54.13
79491;SHT31;68950;53.098;18.032;2023-04-24T00:25:32;19.56;54.14
79491;SHT31;68950;53.098;18.032;2023-04-24T00:27:59;19.56;54.17
79491;SHT31;68950;53.098;18.032;2023-04-24T00:30:26;19.56;54.16
79491;SHT31;68950;53.098;18.032;2023-04-24T00:32:53;19.56;54.17
79491;SHT31;68950;53.098;18.032;2023-04-24T00:35:19;19.55;54.18
79491;SHT31;68950;53.098;18.032;2023-04-24T00:37:46;19.55;54.16
79491;SHT31;68950;53.098;18.032;2023-04-24T00:40:13;19.55;54.18
79491;SHT31;68950;53.098;18.032;2023-04-24T00:42:40;19.55;54.18
79491;SHT31;68950;53.098;18.032;2023-04-24T00:45:07;19.55;54.20
79491;SHT31;68950;53.098;18.032;2023-04-24T00:47:35;19.55;54.17
79491;SHT31;68950;53.098;18.032;2023-04-24T00:50:06;19.55;54.19
79491;SHT31;68950;53.098;18.032;2023-04-24T00:52:33;19.55;54.20
79491;SHT31;68950;53.098;18.032;2023-04-24T00:55:00;19.54;54.20
79491;SHT31;68950;53.098;18.032;2023-04-24T00:57:28;19.54;54.19
79491;SHT31;68950;53.098;18.032;2023-04-24T00:59:54;19.53;54.20
79491;SHT31;68950;53.098;18.032;2023-04-24T01:02:21;19.54;54.20
79491;SHT31;68950;53.098;18.032;2023-04-24T01:04:49;19.54;54.20
79491;SHT31;68950;53.098;18.032;2023-04-24T01:07:20;19.53;54.20
79491;SHT31;68950;53.098;18.032;2023-04-24T01:09:48;19.53;54.20
79491;SHT31;68950;53.098;18.032;2023-04-24T01:12:17;19.53;54.20
79491;SHT31;68950;53.098;18.032;2023-04-24T01:14:44;19.54;54.20
79491;SHT31;68950;53.098;18.032;2023-04-24T01:17:11;19.53;54.21
79491;SHT31;68950;53.098;18.032;2023-04-24T01:19:38;19.53;54.21
79491;SHT31;68950;53.098;18.032;2023-04-24T01:22:15;19.53;54.22
79491;SHT31;68950;53.098;18.032;2023-04-24T01:24:43;19.53;54.20
79491;SHT31;68950;53.098;18.032;2023-04-24T01:27:09;19.52;54.22
79491;SHT31;68950;53.098;18.032;2023-04-24T01:29:37;19.52;54.23
79491;SHT31;68950;53.098;18.032;2023-04-24T01:32:04;19.53;54.22
79491;SHT31;68950;53.098;18.032;2023-04-24T01:34:32;19.52;54.24
79491;SHT31;68950;53.098;18.032;2023-04-24T01:36:59;19.52;54.24
79491;SHT31;68950;53.098;18.032;2023-04-24T01:39:26;19.52;54.24
79491;SHT31;68950;53.098;18.032;2023-04-24T01:41:55;19.52;54.24
79491;SHT31;68950;53.098;18.032;2023-04-24T01:44:23;19.52;54.29
79491;SHT31;68950;53.098;18.032;2023-04-24T01:46:50;19.51;54.29
79491;SHT31;68950;53.098;18.032;2023-04-24T01:49:16;19.51;54.29
79491;SHT31;68950;53.098;18.032;2023-04-24T01:51:43;19.51;54.29
79491;SHT31;68950;53.098;18.032;2023-04-24T01:54:10;19.51;54.29
79491;SHT31;68950;53.098;18.032;2023-04-24T01:56:40;19.50;54.30
79491;SHT31;68950;53.098;18.032;2023-04-24T01:59:11;19.50;54.29
79491;SHT31;68950;53.098;18.032;2023-04-24T02:01:38;19.50;54.30
79491;SHT31;68950;53.098;18.032;2023-04-24T02:04:05;19.50;54.30
79491;SHT31;68950;53.098;18.032;2023-04-24T02:06:33;19.50;54.30
79491;SHT31;68950;53.098;18.032;2023-04-24T02:09:00;19.50;54.30
79491;SHT31;68950;53.098;18.032;2023-04-24T02:11:27;19.50;54.30
79491;SHT31;68950;53.098;18.032;2023-04-24T02:13:54;19.50;54.30
79491;SHT31;68950;53.098;18.032;2023-04-24T02:16:20;19.50;54.30
79491;SHT31;68950;53.098;18.032;2023-04-24T02:18:47;19.49;54.30
79491;SHT31;68950;53.098;18.032;2023-04-24T02:21:14;19.50;54.31
79491;SHT31;68950;53.098;18.032;2023-04-24T02:23:40;19.50;54.30
79491;SHT31;68950;53.098;18.032;2023-04-24T02:26:07;19.49;54.30
79491;SHT31;68950;53.098;18.032;2023-04-24T02:28:34;19.49;54.30
79491;SHT31;68950;53.098;18.032;2023-04-24T02:31:00;19.49;54.32
79491;SHT31;68950;53.098;18.032;2023-04-24T02:33:28;19.49;54.30
79491;SHT31;68950;53.098;18.032;2023-04-24T02:35:55;19.49;54.31
79491;SHT31;68950;53.098;18.032;2023-04-24T02:38:22;19.49;54.31
79491;SHT31;68950;53.098;18.032;2023-04-24T02:40:48;19.49;54.32
79491;SHT31;68950;53.098;18.032;2023-04-24T02:43:15;19.49;54.32
79491;SHT31;68950;53.098;18.032;2023-04-24T02:45:42;19.48;54.31
79491;SHT31;68950;53.098;18.032;2023-04-24T02:48:08;19.48;54.33
79491;SHT31;68950;53.098;18.032;2023-04-24T02:50:35;19.48;54.37
79491;SHT31;68950;53.098;18.032;2023-04-24T02:53:01;19.48;54.33
79491;SHT31;68950;53.098;18.032;2023-04-24T02:55:28;19.48;54.35
79491;SHT31;68950;53.098;18.032;2023-04-24T02:57:55;19.47;54.37
79491;SHT31;68950;53.098;18.032;2023-04-24T03:00:22;19.48;54.35
79491;SHT31;68950;53.098;18.032;2023-04-24T03:02:48;19.48;54.37
79491;SHT31;68950;53.098;18.032;2023-04-24T03:05:16;19.47;54.37
79491;SHT31;68950;53.098;18.032;2023-04-24T03:07:43;19.48;54.38
79491;SHT31;68950;53.098;18.032;2023-04-24T03:10:09;19.48;54.38
79491;SHT31;68950;53.098;18.032;2023-04-24T03:12:36;19.47;54.40
79491;SHT31;68950;53.098;18.032;2023-04-24T03:15:03;19.47;54.40
79491;SHT31;68950;53.098;18.032;2023-04-24T03:17:30;19.47;54.39
79491;SHT31;68950;53.098;18.032;2023-04-24T03:19:57;19.47;54.40
79491;SHT31;68950;53.098;18.032;2023-04-24T03:22:23;19.47;54.39
79491;SHT31;68950;53.098;18.032;2023-04-24T03:24:50;19.47;54.40
79491;SHT31;68950;53.098;18.032;2023-04-24T03:27:16;19.47;54.40
79491;SHT31;68950;53.098;18.032;2023-04-24T03:29:43;19.46;54.40
79491;SHT31;68950;53.098;18.032;2023-04-24T03:32:10;19.47;54.40
79491;SHT31;68950;53.098;18.032;2023-04-24T03:34:36;19.47;54.40
79491;SHT31;68950;53.098;18.032;2023-04-24T03:37:03;19.46;54.40
79491;SHT31;68950;53.098;18.032;2023-04-24T03:39:29;19.46;54.40
79491;SHT31;68950;53.098;18.032;2023-04-24T03:41:56;19.46;54.40
79491;SHT31;68950;53.098;18.032;2023-04-24T03:44:22;19.46;54.41
79491;SHT31;68950;53.098;18.032;2023-04-24T03:46:49;19.46;54.40
79491;SHT31;68950;53.098;18.032;2023-04-24T03:49:15;19.45;54.42
79491;SHT31;68950;53.098;18.032;2023-04-24T03:51:42;19.46;54.40
79491;SHT31;68950;53.098;18.032;2023-04-24T03:54:09;19.46;54.40
79491;SHT31;68950;53.098;18.032;2023-04-24T03:56:35;19.47;54.41
79491;SHT31;68950;53.098;18.032;2023-04-24T03:59:02;19.46;54.40
79491;SHT31;68950;53.098;18.032;2023-04-24T04:01:29;19.47;54.40
79491;SHT31;68950;53.098;18.032;2023-04-24T04:03:56;19.46;54.41
79491;SHT31;68950;53.098;18.032;2023-04-24T04:06:23;19.47;54.41
79491;SHT31;68950;53.098;18.032;2023-04-24T04:08:50;19.47;54.43
79491;SHT31;68950;53.098;18.032;2023-04-24T04:11:17;19.46;54.41
79491;SHT31;68950;53.098;18.032;2023-04-24T04:13:43;19.46;54.43
79491;SHT31;68950;53.098;18.032;2023-04-24T04:16:10;19.47;54.42
79491;SHT31;68950;53.098;18.032;2023-04-24T04:18:37;19.47;54.44
79491;SHT31;68950;53.098;18.032;2023-04-24T04:21:03;19.46;54.43
79491;SHT31;68950;53.098;18.032;2023-04-24T04:23:30;19.47;54.44
79491;SHT31;68950;53.098;18.032;2023-04-24T04:25:58;19.47;54.45
79491;SHT31;68950;53.098;18.032;2023-04-24T04:28:25;19.47;54.43
79491;SHT31;68950;53.098;18.032;2023-04-24T04:30:52;19.48;54.48
79491;SHT31;68950;53.098;18.032;2023-04-24T04:33:24;19.48;54.45
79491;SHT31;68950;53.098;18.032;2023-04-24T04:35:52;19.48;54.45
79491;SHT31;68950;53.098;18.032;2023-04-24T04:38:18;19.48;54.48
79491;SHT31;68950;53.098;18.032;2023-04-24T04:40:45;19.48;54.45
79491;SHT31;68950;53.098;18.032;2023-04-24T04:43:12;19.49;54.47
79491;SHT31;68950;53.098;18.032;2023-04-24T04:45:42;19.49;54.47
79491;SHT31;68950;53.098;18.032;2023-04-24T04:48:09;19.50;54.49
79491;SHT31;68950;53.098;18.032;2023-04-24T04:50:38;19.50;54.50
79491;SHT31;68950;53.098;18.032;2023-04-24T04:53:05;19.50;54.45
79491;SHT31;68950;53.098;18.032;2023-04-24T04:55:32;19.51;54.49
79491;SHT31;68950;53.098;18.032;2023-04-24T04:57:59;19.52;54.49
79491;SHT31;68950;53.098;18.032;2023-04-24T05:00:26;19.52;54.47
79491;SHT31;68950;53.098;18.032;2023-04-24T05:02:55;19.52;54.49
79491;SHT31;68950;53.098;18.032;2023-04-24T05:05:21;19.54;54.50
79491;SHT31;68950;53.098;18.032;2023-04-24T05:07:48;19.55;54.49
79491;SHT31;68950;53.098;18.032;2023-04-24T05:10:15;19.56;54.50
79491;SHT31;68950;53.098;18.032;2023-04-24T05:12:42;19.56;54.50
79491;SHT31;68950;53.098;18.032;2023-04-24T05:15:09;19.57;54.48
79491;SHT31;68950;53.098;18.032;2023-04-24T05:17:36;19.58;54.50
79491;SHT31;68950;53.098;18.032;2023-04-24T05:20:03;19.59;54.50
79491;SHT31;68950;53.098;18.032;2023-04-24T05:22:31;19.59;54.49
79491;SHT31;68950;53.098;18.032;2023-04-24T05:24:58;19.60;54.50
79491;SHT31;68950;53.098;18.032;2023-04-24T05:27:25;19.61;54.50
79491;SHT31;68950;53.098;18.032;2023-04-24T05:29:51;19.62;54.50
79491;SHT31;68950;53.098;18.032;2023-04-24T05:32:18;19.63;54.48
79491;SHT31;68950;53.098;18.032;2023-04-24T05:34:45;19.65;54.50
79491;SHT31;68950;53.098;18.032;2023-04-24T05:37:11;19.67;54.50
79491;SHT31;68950;53.098;18.032;2023-04-24T05:39:38;19.68;54.50
79491;SHT31;68950;53.098;18.032;2023-04-24T05:42:04;19.70;54.50
79491;SHT31;68950;53.098;18.032;2023-04-24T05:44:31;19.71;54.50
79491;SHT31;68950;53.098;18.032;2023-04-24T05:46:58;19.72;54.49
79491;SHT31;68950;53.098;18.032;2023-04-24T05:49:24;19.73;54.49
79491;SHT31;68950;53.098;18.032;2023-04-24T05:51:51;19.73;54.50
79491;SHT31;68950;53.098;18.032;2023-04-24T05:54:18;19.73;54.47
79491;SHT31;68950;53.098;18.032;2023-04-24T05:56:44;19.73;54.47
79491;SHT31;68950;53.098;18.032;2023-04-24T05:59:11;19.73;54.50
79491;SHT31;68950;53.098;18.032;2023-04-24T06:01:37;19.73;54.49
79491;SHT31;68950;53.098;18.032;2023-04-24T06:04:04;19.74;54.48
79491;SHT31;68950;53.098;18.032;2023-04-24T06:06:30;19.74;54.46
79491;SHT31;68950;53.098;18.032;2023-04-24T06:08:58;19.73;54.49
79491;SHT31;68950;53.098;18.032;2023-04-24T06:11:25;19.75;54.46
79491;SHT31;68950;53.098;18.032;2023-04-24T06:13:51;19.75;54.43
79491;SHT31;68950;53.098;18.032;2023-04-24T06:16:18;19.76;54.46
79491;SHT31;68950;53.098;18.032;2023-04-24T06:18:45;19.77;54.43
79491;SHT31;68950;53.098;18.032;2023-04-24T06:21:13;19.77;54.40
79491;SHT31;68950;53.098;18.032;2023-04-24T06:23:41;19.78;54.42
79491;SHT31;68950;53.098;18.032;2023-04-24T06:26:08;19.81;54.41
79491;SHT31;68950;53.098;18.032;2023-04-24T06:28:34;19.83;54.41
79491;SHT31;68950;53.098;18.032;2023-04-24T06:31:01;19.84;54.40
79491;SHT31;68950;53.098;18.032;2023-04-24T06:33:28;19.85;54.40
79491;SHT31;68950;53.098;18.032;2023-04-24T06:35:54;19.86;54.41
79491;SHT31;68950;53.098;18.032;2023-04-24T06:38:21;19.86;54.41
79491;SHT31;68950;53.098;18.032;2023-04-24T06:40:47;19.87;54.42
79491;SHT31;68950;53.098;18.032;2023-04-24T06:43:14;19.87;54.41
79491;SHT31;68950;53.098;18.032;2023-04-24T06:45:41;19.88;54.41
79491;SHT31;68950;53.098;18.032;2023-04-24T06:48:09;19.87;54.40
79491;SHT31;68950;53.098;18.032;2023-04-24T06:50:36;19.87;54.40
79491;SHT31;68950;53.098;18.032;2023-04-24T06:53:02;19.86;54.40
79491;SHT31;68950;53.098;18.032;2023-04-24T06:55:29;19.88;54.39
79491;SHT31;68950;53.098;18.032;2023-04-24T06:57:56;19.90;54.40
79491;SHT31;68950;53.098;18.032;2023-04-24T07:00:23;19.91;54.37
79491;SHT31;68950;53.098;18.032;2023-04-24T07:02:50;19.92;54.39
79491;SHT31;68950;53.098;18.032;2023-04-24T07:05:17;19.94;54.38
79491;SHT31;68950;53.098;18.032;2023-04-24T07:07:46;19.95;54.38
79491;SHT31;68950;53.098;18.032;2023-04-24T07:10:15;19.97;54.36
79491;SHT31;68950;53.098;18.032;2023-04-24T07:12:41;19.99;54.34
79491;SHT31;68950;53.098;18.032;2023-04-24T07:15:08;19.98;54.34
79491;SHT31;68950;53.098;18.032;2023-04-24T07:17:36;20.00;54.33
79491;SHT31;68950;53.098;18.032;2023-04-24T07:20:05;20.01;54.32
79491;SHT31;68950;53.098;18.032;2023-04-24T07:22:35;20.01;54.31
79491;SHT31;68950;53.098;18.032;2023-04-24T07:25:02;20.02;54.31
79491;SHT31;68950;53.098;18.032;2023-04-24T07:27:29;20.02;54.30
79491;SHT31;68950;53.098;18.032;2023-04-24T07:29:56;20.01;54.30
79491;SHT31;68950;53.098;18.032;2023-04-24T07:32:22;20.02;54.31
79491;SHT31;68950;53.098;18.032;2023-04-24T07:34:49;20.04;54.30
79491;SHT31;68950;53.098;18.032;2023-04-24T07:37:15;20.05;54.30
79491;SHT31;68950;53.098;18.032;2023-04-24T07:39:42;20.07;54.30
79491;SHT31;68950;53.098;18.032;2023-04-24T07:42:09;20.07;54.29
79491;SHT31;68950;53.098;18.032;2023-04-24T07:44:35;20.09;54.30
79491;SHT31;68950;53.098;18.032;2023-04-24T07:47:02;20.11;54.28
79491;SHT31;68950;53.098;18.032;2023-04-24T07:49:29;20.13;54.29
79491;SHT31;68950;53.098;18.032;2023-04-24T07:51:55;20.14;54.26
79491;SHT31;68950;53.098;18.032;2023-04-24T07:54:22;20.15;54.22
79491;SHT31;68950;53.098;18.032;2023-04-24T07:56:49;20.15;54.20
79491;SHT31;68950;53.098;18.032;2023-04-24T07:59:16;20.17;54.20
79491;SHT31;68950;53.098;18.032;2023-04-24T08:01:43;20.19;54.21
79491;SHT31;68950;53.098;18.032;2023-04-24T08:04:09;20.20;54.21
79491;SHT31;68950;53.098;18.032;2023-04-24T08:06:36;20.22;54.20
79491;SHT31;68950;53.098;18.032;2023-04-24T08:09:02;20.23;54.20
79491;SHT31;68950;53.098;18.032;2023-04-24T08:11:29;20.25;54.20
79491;SHT31;68950;53.098;18.032;2023-04-24T08:13:56;20.25;54.20
79491;SHT31;68950;53.098;18.032;2023-04-24T08:16:23;20.26;54.19
79491;SHT31;68950;53.098;18.032;2023-04-24T08:18:50;20.28;54.16
79491;SHT31;68950;53.098;18.032;2023-04-24T08:21:17;20.31;54.17
79491;SHT31;68950;53.098;18.032;2023-04-24T08:23:45;20.33;54.12
79491;SHT31;68950;53.098;18.032;2023-04-24T08:26:12;20.35;54.12
79491;SHT31;68950;53.098;18.032;2023-04-24T08:28:39;20.36;54.10
79491;SHT31;68950;53.098;18.032;2023-04-24T08:31:06;20.37;54.10
79491;SHT31;68950;53.098;18.032;2023-04-24T08:33:33;20.37;54.11
79491;SHT31;68950;53.098;18.032;2023-04-24T08:36:03;20.38;54.10
79491;SHT31;68950;53.098;18.032;2023-04-24T08:38:31;20.39;54.10
79491;SHT31;68950;53.098;18.032;2023-04-24T08:40:59;20.38;54.10
79491;SHT31;68950;53.098;18.032;2023-04-24T08:43:28;20.40;54.08
79491;SHT31;68950;53.098;18.032;2023-04-24T08:45:55;20.39;54.06
79491;SHT31;68950;53.098;18.032;2023-04-24T08:48:23;20.41;54.06
79491;SHT31;68950;53.098;18.032;2023-04-24T08:50:50;20.41;54.06
79491;SHT31;68950;53.098;18.032;2023-04-24T08:53:17;20.41;54.01
79491;SHT31;68950;53.098;18.032;2023-04-24T08:55:47;20.42;54.02
79491;SHT31;68950;53.098;18.032;2023-04-24T08:58:16;20.43;54.00
79491;SHT31;68950;53.098;18.032;2023-04-24T09:00:44;20.46;54.00
79491;SHT31;68950;53.098;18.032;2023-04-24T09:03:13;20.48;54.00
79491;SHT31;68950;53.098;18.032;2023-04-24T09:05:46;20.50;54.00
79491;SHT31;68950;53.098;18.032;2023-04-24T09:08:16;20.50;54.00
79491;SHT31;68950;53.098;18.032;2023-04-24T09:10:45;20.50;54.00
79491;SHT31;68950;53.098;18.032;2023-04-24T09:13:12;20.51;54.00
79491;SHT31;68950;53.098;18.032;2023-04-24T09:15:39;20.53;54.00
79491;SHT31;68950;53.098;18.032;2023-04-24T09:18:07;20.56;54.00
79491;SHT31;68950;53.098;18.032;2023-04-24T09:20:34;20.61;53.99
79491;SHT31;68950;53.098;18.032;2023-04-24T09:23:03;20.63;54.00
79491;SHT31;68950;53.098;18.032;2023-04-24T09:25:30;20.63;53.97
79491;SHT31;68950;53.098;18.032;2023-04-24T09:28:03;20.65;54.00
79491;SHT31;68950;53.098;18.032;2023-04-24T09:30:32;20.66;54.00
79491;SHT31;68950;53.098;18.032;2023-04-24T09:33:12;20.67;54.00
79491;SHT31;68950;53.098;18.032;2023-04-24T09:35:42;20.69;54.00
79491;SHT31;68950;53.098;18.032;2023-04-24T09:38:16;20.68;54.00
79491;SHT31;68950;53.098;18.032;2023-04-24T09:40:42;20.68;54.00
79491;SHT31;68950;53.098;18.032;2023-04-24T09:43:10;20.69;54.00
79491;SHT31;68950;53.098;18.032;2023-04-24T09:45:38;20.70;54.00
79491;SHT31;68950;53.098;18.032;2023-04-24T09:48:09;20.71;54.00
79491;SHT31;68950;53.098;18.032;2023-04-24T09:50:36;20.72;54.00
79491;SHT31;68950;53.098;18.032;2023-04-24T09:53:04;20.72;54.03
79491;SHT31;68950;53.098;18.032;2023-04-24T09:55:38;20.72;54.02
79491;SHT31;68950;53.098;18.032;2023-04-24T09:58:10;20.72;54.03
79491;SHT31;68950;53.098;18.032;2023-04-24T10:00:37;20.73;54.08
79491;SHT31;68950;53.098;18.032;2023-04-24T10:03:04;20.73;54.04
79491;SHT31;68950;53.098;18.032;2023-04-24T10:05:33;20.74;54.08
79491;SHT31;68950;53.098;18.032;2023-04-24T10:08:03;20.73;54.05
79491;SHT31;68950;53.098;18.032;2023-04-24T10:10:32;20.73;54.06
79491;SHT31;68950;53.098;18.032;2023-04-24T10:13:01;20.73;54.07
79491;SHT31;68950;53.098;18.032;2023-04-24T10:15:28;20.73;54.08
79491;SHT31;68950;53.098;18.032;2023-04-24T10:17:57;20.74;54.05
79491;SHT31;68950;53.098;18.032;2023-04-24T10:20:26;20.75;54.06
79491;SHT31;68950;53.098;18.032;2023-04-24T10:22:57;20.75;54.07
79491;SHT31;68950;53.098;18.032;2023-04-24T10:25:27;20.74;54.08
79491;SHT31;68950;53.098;18.032;2023-04-24T10:27:57;20.74;54.07
79491;SHT31;68950;53.098;18.032;2023-04-24T10:30:26;20.75;54.04
79491;SHT31;68950;53.098;18.032;2023-04-24T10:32:55;20.76;54.04
79491;SHT31;68950;53.098;18.032;2023-04-24T10:35:22;20.76;54.07
79491;SHT31;68950;53.098;18.032;2023-04-24T10:37:54;20.78;54.04
79491;SHT31;68950;53.098;18.032;2023-04-24T10:40:35;20.79;54.01
79491;SHT31;68950;53.098;18.032;2023-04-24T10:43:03;20.80;54.07
79491;SHT31;68950;53.098;18.032;2023-04-24T10:45:34;20.81;54.05
79491;SHT31;68950;53.098;18.032;2023-04-24T10:48:02;20.81;54.01
79491;SHT31;68950;53.098;18.032;2023-04-24T10:53:21;20.78;54.01
79491;SHT31;68950;53.098;18.032;2023-04-24T10:58:38;20.75;54.00
79491;SHT31;68950;53.098;18.032;2023-04-24T11:01:27;20.74;54.01
79491;SHT31;68950;53.098;18.032;2023-04-24T11:03:57;20.75;54.00
79491;SHT31;68950;53.098;18.032;2023-04-24T11:06:29;20.78;54.00
79491;SHT31;68950;53.098;18.032;2023-04-24T11:09:02;20.80;54.00
79491;SHT31;68950;53.098;18.032;2023-04-24T11:11:34;20.80;54.00
79491;SHT31;68950;53.098;18.032;2023-04-24T11:14:04;20.80;54.00
79491;SHT31;68950;53.098;18.032;2023-04-24T11:21:43;20.85;54.00
79491;SHT31;68950;53.098;18.032;2023-04-24T11:24:48;20.95;53.99
79491;SHT31;68950;53.098;18.032;2023-04-24T11:27:21;20.96;54.00
79491;SHT31;68950;53.098;18.032;2023-04-24T11:29:49;20.96;54.00
79491;SHT31;68950;53.098;18.032;2023-04-24T11:37:33;20.97;53.97
79491;SHT31;68950;53.098;18.032;2023-04-24T11:40:03;20.97;53.98
79491;SHT31;68950;53.098;18.032;2023-04-24T11:42:33;20.98;53.99
79491;SHT31;68950;53.098;18.032;2023-04-24T11:45:09;20.98;53.94
79491;SHT31;68950;53.098;18.032;2023-04-24T11:47:43;20.99;53.96
79491;SHT31;68950;53.098;18.032;2023-04-24T11:50:11;21.00;53.95
79491;SHT31;68950;53.098;18.032;2023-04-24T11:52:40;21.01;53.94
79491;SHT31;68950;53.098;18.032;2023-04-24T11:55:31;21.03;53.94
79491;SHT31;68950;53.098;18.032;2023-04-24T11:57:57;21.04;53.95
79491;SHT31;68950;53.098;18.032;2023-04-24T12:03:04;21.02;53.92
79491;SHT31;68950;53.098;18.032;2023-04-24T12:05:34;21.03;53.92
79491;SHT31;68950;53.098;18.032;2023-04-24T12:08:01;21.05;53.92
79491;SHT31;68950;53.098;18.032;2023-04-24T12:10:28;21.02;53.91
79491;SHT31;68950;53.098;18.032;2023-04-24T12:12:57;21.02;53.90
79491;SHT31;68950;53.098;18.032;2023-04-24T12:15:26;21.01;53.91
79491;SHT31;68950;53.098;18.032;2023-04-24T12:17:54;21.00;53.90
79491;SHT31;68950;53.098;18.032;2023-04-24T12:20:32;21.00;53.90
79491;SHT31;68950;53.098;18.032;2023-04-24T12:23:00;21.00;53.89
79491;SHT31;68950;53.098;18.032;2023-04-24T12:25:33;20.99;53.90
79491;SHT31;68950;53.098;18.032;2023-04-24T12:30:31;20.99;53.90
79491;SHT31;68950;53.098;18.032;2023-04-24T12:33:00;21.01;53.90
79491;SHT31;68950;53.098;18.032;2023-04-24T12:35:29;21.01;53.90
79491;SHT31;68950;53.098;18.032;2023-04-24T12:38:09;21.02;53.90
79491;SHT31;68950;53.098;18.032;2023-04-24T12:40:40;21.02;53.90
79491;SHT31;68950;53.098;18.032;2023-04-24T12:43:16;21.03;53.90
79491;SHT31;68950;53.098;18.032;2023-04-24T12:45:46;21.03;53.90
79491;SHT31;68950;53.098;18.032;2023-04-24T12:48:14;21.03;53.90
79491;SHT31;68950;53.098;18.032;2023-04-24T12:50:41;21.05;53.90
79491;SHT31;68950;53.098;18.032;2023-04-24T12:53:08;21.04;53.91
79491;SHT31;68950;53.098;18.032;2023-04-24T12:55:35;21.06;53.91
79491;SHT31;68950;53.098;18.032;2023-04-24T12:58:03;21.05;53.90
79491;SHT31;68950;53.098;18.032;2023-04-24T13:00:30;21.05;53.91
79491;SHT31;68950;53.098;18.032;2023-04-24T13:02:56;21.02;53.91
79491;SHT31;68950;53.098;18.032;2023-04-24T13:05:23;21.01;53.93
79491;SHT31;68950;53.098;18.032;2023-04-24T13:07:50;21.01;53.93
79491;SHT31;68950;53.098;18.032;2023-04-24T13:10:16;21.00;53.95
79491;SHT31;68950;53.098;18.032;2023-04-24T13:12:43;21.00;53.98
79491;SHT31;68950;53.098;18.032;2023-04-24T13:15:12;21.01;53.98
79491;SHT31;68950;53.098;18.032;2023-04-24T13:17:39;21.02;53.98
79491;SHT31;68950;53.098;18.032;2023-04-24T13:20:06;21.01;53.99
79491;SHT31;68950;53.098;18.032;2023-04-24T13:22:33;21.02;54.00
79491;SHT31;68950;53.098;18.032;2023-04-24T13:25:00;21.02;54.00
79491;SHT31;68950;53.098;18.032;2023-04-24T13:27:27;21.03;54.00
79491;SHT31;68950;53.098;18.032;2023-04-24T13:29:53;21.05;54.00
79491;SHT31;68950;53.098;18.032;2023-04-24T13:32:20;21.05;54.02
79491;SHT31;68950;53.098;18.032;2023-04-24T13:34:47;21.06;54.02
79491;SHT31;68950;53.098;18.032;2023-04-24T13:37:13;21.07;54.01
79491;SHT31;68950;53.098;18.032;2023-04-24T13:39:40;21.09;54.02
79491;SHT31;68950;53.098;18.032;2023-04-24T13:42:10;21.09;54.05
79491;SHT31;68950;53.098;18.032;2023-04-24T13:44:37;21.07;54.07
79491;SHT31;68950;53.098;18.032;2023-04-24T13:47:03;21.06;54.07
79491;SHT31;68950;53.098;18.032;2023-04-24T13:49:30;21.05;54.07
79491;SHT31;68950;53.098;18.032;2023-04-24T13:51:56;21.02;54.10
79491;SHT31;68950;53.098;18.032;2023-04-24T13:54:23;21.03;54.09
79491;SHT31;68950;53.098;18.032;2023-04-24T13:56:51;21.03;54.09
79491;SHT31;68950;53.098;18.032;2023-04-24T13:59:19;21.02;54.10
79491;SHT31;68950;53.098;18.032;2023-04-24T14:01:47;21.01;54.10
79491;SHT31;68950;53.098;18.032;2023-04-24T14:04:14;21.01;54.10
79491;SHT31;68950;53.098;18.032;2023-04-24T14:06:41;21.01;54.09
79491;SHT31;68950;53.098;18.032;2023-04-24T14:09:07;21.00;54.10
79491;SHT31;68950;53.098;18.032;2023-04-24T14:11:34;20.99;54.10
79491;SHT31;68950;53.098;18.032;2023-04-24T14:14:01;20.99;54.10
79491;SHT31;68950;53.098;18.032;2023-04-24T14:16:28;20.99;54.10
79491;SHT31;68950;53.098;18.032;2023-04-24T14:18:55;20.99;54.11
79491;SHT31;68950;53.098;18.032;2023-04-24T14:21:22;20.98;54.10
79491;SHT31;68950;53.098;18.032;2023-04-24T14:23:49;20.96;54.10
79491;SHT31;68950;53.098;18.032;2023-04-24T14:26:15;20.95;54.11
79491;SHT31;68950;53.098;18.032;2023-04-24T14:28:42;20.97;54.16
79491;SHT31;68950;53.098;18.032;2023-04-24T14:31:08;20.99;54.14
79491;SHT31;68950;53.098;18.032;2023-04-24T14:33:35;20.99;54.17
79491;SHT31;68950;53.098;18.032;2023-04-24T14:36:02;21.00;54.20
79491;SHT31;68950;53.098;18.032;2023-04-24T14:38:30;21.00;54.19
79491;SHT31;68950;53.098;18.032;2023-04-24T14:40:57;21.01;54.20
79491;SHT31;68950;53.098;18.032;2023-04-24T14:43:24;21.03;54.19
79491;SHT31;68950;53.098;18.032;2023-04-24T14:45:50;21.04;54.19
79491;SHT31;68950;53.098;18.032;2023-04-24T14:48:17;21.05;54.20
79491;SHT31;68950;53.098;18.032;2023-04-24T14:50:44;21.04;54.20
79491;SHT31;68950;53.098;18.032;2023-04-24T14:53:11;21.05;54.20
79491;SHT31;68950;53.098;18.032;2023-04-24T14:55:38;21.07;54.21
79491;SHT31;68950;53.098;18.032;2023-04-24T14:58:04;21.08;54.21
79491;SHT31;68950;53.098;18.032;2023-04-24T15:00:31;21.09;54.20
79491;SHT31;68950;53.098;18.032;2023-04-24T15:02:58;21.10;54.24
79491;SHT31;68950;53.098;18.032;2023-04-24T15:05:24;21.13;54.27
79491;SHT31;68950;53.098;18.032;2023-04-24T15:07:51;21.19;54.29
79491;SHT31;68950;53.098;18.032;2023-04-24T15:10:17;21.21;54.29
79491;SHT31;68950;53.098;18.032;2023-04-24T15:12:44;21.24;54.29
79491;SHT31;68950;53.098;18.032;2023-04-24T15:15:11;21.27;54.30
79491;SHT31;68950;53.098;18.032;2023-04-24T15:17:37;21.32;54.30
79491;SHT31;68950;53.098;18.032;2023-04-24T15:20:04;21.37;54.31
79491;SHT31;68950;53.098;18.032;2023-04-24T15:22:32;21.41;54.33
79491;SHT31;68950;53.098;18.032;2023-04-24T15:24:59;21.43;54.39
79491;SHT31;68950;53.098;18.032;2023-04-24T15:27:27;21.45;54.38
79491;SHT31;68950;53.098;18.032;2023-04-24T15:29:53;21.47;54.40
79491;SHT31;68950;53.098;18.032;2023-04-24T15:32:20;21.48;54.39
79491;SHT31;68950;53.098;18.032;2023-04-24T15:34:47;21.50;54.40
79491;SHT31;68950;53.098;18.032;2023-04-24T15:37:14;21.51;54.41
79491;SHT31;68950;53.098;18.032;2023-04-24T15:39:40;21.53;54.40